createdAt,value
2019-05-10T00:00:00.505Z,0.00
2019-05-10T00:01:00.369Z,0.00
2019-05-10T00:02:00.344Z,0.00
2019-05-10T00:03:00.329Z,0.00
2019-05-10T00:04:00.317Z,0.00
2019-05-10T00:05:00.285Z,0.00
2019-05-10T00:06:00.266Z,0.00
2019-05-10T00:07:00.248Z,0.00
2019-05-10T00:08:00.227Z,0.00
2019-05-10T00:09:00.206Z,0.00
2019-05-10T00:10:00.197Z,0.00
2019-05-10T00:11:00.166Z,0.00
2019-05-10T00:12:00.147Z,0.00
2019-05-10T00:13:00.143Z,0.00
2019-05-10T00:14:00.116Z,0.00
2019-05-10T00:15:00.090Z,0.00
2019-05-10T00:16:00.067Z,0.00
2019-05-10T00:17:00.048Z,0.00
2019-05-10T00:18:00.030Z,0.00
2019-05-10T00:19:00.032Z,0.00
2019-05-10T00:19:59.986Z,0.00
2019-05-10T00:20:59.977Z,0.00
2019-05-10T00:21:59.951Z,0.00
2019-05-10T00:22:59.931Z,0.00
2019-05-10T00:23:59.910Z,0.00
2019-05-10T00:25:04.481Z,0.00
2019-05-10T00:25:59.883Z,0.00
2019-05-10T00:26:59.854Z,0.00
2019-05-10T00:27:59.828Z,0.00
2019-05-10T00:28:59.807Z,0.00
2019-05-10T00:29:59.789Z,0.00
2019-05-10T00:30:59.772Z,0.00
2019-05-10T00:31:59.758Z,0.00
2019-05-10T00:32:59.733Z,0.00
2019-05-10T00:33:59.708Z,0.00
2019-05-10T00:34:59.697Z,0.00
2019-05-10T00:35:59.669Z,0.00
2019-05-10T00:36:59.650Z,0.00
2019-05-10T00:37:59.630Z,0.00
2019-05-10T00:38:59.609Z,0.00
2019-05-10T00:39:59.589Z,0.00
2019-05-10T00:40:59.569Z,0.00
2019-05-10T00:41:59.553Z,0.00
2019-05-10T00:42:59.535Z,0.00
2019-05-10T00:43:59.519Z,0.00
2019-05-10T00:44:59.505Z,0.00
2019-05-10T00:45:59.471Z,0.00
2019-05-10T00:46:59.451Z,0.00
2019-05-10T00:47:59.510Z,0.00
2019-05-10T00:48:59.413Z,0.00
2019-05-10T00:49:59.388Z,0.00
2019-05-10T00:50:59.370Z,0.00
2019-05-10T00:51:59.350Z,0.00
2019-05-10T00:52:59.336Z,0.00
2019-05-10T00:53:59.310Z,0.00
2019-05-10T00:54:59.289Z,0.00
2019-05-10T00:55:59.270Z,0.00
2019-05-10T00:56:59.256Z,0.00
2019-05-10T00:57:59.230Z,0.00
2019-05-10T00:58:59.209Z,0.00
2019-05-10T00:59:59.198Z,0.00
2019-05-10T01:00:59.169Z,0.00
2019-05-10T01:01:59.156Z,0.00
2019-05-10T01:02:59.129Z,0.00
2019-05-10T01:03:59.111Z,0.00
2019-05-10T01:04:59.103Z,0.00
2019-05-10T01:05:59.072Z,0.00
2019-05-10T01:06:59.068Z,0.00
2019-05-10T01:07:59.031Z,0.00
2019-05-10T01:08:59.010Z,0.00
2019-05-10T01:09:58.990Z,0.00
2019-05-10T01:10:58.973Z,0.00
2019-05-10T01:11:58.951Z,0.00
2019-05-10T01:12:58.930Z,0.00
2019-05-10T01:13:58.910Z,0.00
2019-05-10T01:14:58.891Z,0.00
2019-05-10T01:15:58.870Z,0.00
2019-05-10T01:16:58.850Z,0.00
2019-05-10T01:17:58.835Z,0.00
2019-05-10T01:18:58.815Z,0.00
2019-05-10T01:19:58.810Z,0.00
2019-05-10T01:20:58.768Z,0.00
2019-05-10T01:21:58.802Z,0.00
2019-05-10T01:22:58.731Z,0.00
2019-05-10T01:23:58.719Z,0.00
2019-05-10T01:24:58.688Z,0.00
2019-05-10T01:25:58.682Z,0.00
2019-05-10T01:26:58.647Z,0.00
2019-05-10T01:27:58.627Z,0.00
2019-05-10T01:28:58.605Z,0.00
2019-05-10T01:29:58.588Z,0.00
2019-05-10T01:30:58.567Z,0.00
2019-05-10T01:31:58.546Z,0.00
2019-05-10T01:32:58.528Z,0.00
2019-05-10T01:33:58.504Z,0.00
2019-05-10T01:34:58.490Z,0.00
2019-05-10T01:35:58.463Z,0.00
2019-05-10T01:36:58.442Z,0.00
2019-05-10T01:37:58.429Z,0.00
2019-05-10T01:38:58.404Z,0.00
2019-05-10T01:39:58.386Z,0.00
2019-05-10T01:40:58.388Z,0.00
2019-05-10T01:41:58.341Z,0.00
2019-05-10T01:42:58.319Z,0.00
2019-05-10T01:43:58.299Z,0.00
2019-05-10T01:44:58.279Z,0.00
2019-05-10T01:45:58.256Z,0.00
2019-05-10T01:46:58.239Z,0.00
2019-05-10T01:47:58.218Z,0.00
2019-05-10T01:48:58.195Z,0.00
2019-05-10T01:49:58.174Z,0.00
2019-05-10T01:50:58.154Z,0.00
2019-05-10T01:51:58.144Z,0.00
2019-05-10T01:52:58.170Z,0.00
2019-05-10T01:53:58.101Z,0.00
2019-05-10T01:54:58.071Z,0.00
2019-05-10T01:55:58.060Z,0.00
2019-05-10T01:56:58.030Z,0.00
2019-05-10T01:57:58.036Z,0.00
2019-05-10T01:58:57.989Z,0.00
2019-05-10T01:59:57.970Z,0.00
2019-05-10T02:00:57.946Z,0.00
2019-05-10T02:01:57.926Z,0.00
2019-05-10T02:02:57.926Z,0.00
2019-05-10T02:03:57.891Z,0.00
2019-05-10T02:04:57.865Z,0.00
2019-05-10T02:05:57.898Z,0.00
2019-05-10T02:06:57.822Z,0.00
2019-05-10T02:07:57.802Z,0.00
2019-05-10T02:08:57.784Z,0.00
2019-05-10T02:09:57.760Z,0.00
2019-05-10T02:10:57.752Z,0.00
2019-05-10T02:11:57.725Z,0.00
2019-05-10T02:12:57.698Z,0.00
2019-05-10T02:13:57.678Z,0.00
2019-05-10T02:14:57.656Z,0.00
2019-05-10T02:15:57.640Z,0.00
2019-05-10T02:16:57.615Z,0.00
2019-05-10T02:17:57.595Z,0.00
2019-05-10T02:18:57.573Z,0.00
2019-05-10T02:19:57.558Z,0.00
2019-05-10T02:20:57.545Z,0.00
2019-05-10T02:21:57.512Z,0.00
2019-05-10T02:22:57.490Z,0.00
2019-05-10T02:23:57.473Z,0.00
2019-05-10T02:24:57.469Z,0.00
2019-05-10T02:26:08.943Z,0.00
2019-05-10T02:26:57.424Z,0.00
2019-05-10T02:27:57.389Z,0.00
2019-05-10T02:28:57.372Z,0.00
2019-05-10T02:29:57.345Z,0.00
2019-05-10T02:30:57.326Z,0.00
2019-05-10T02:31:57.318Z,0.00
2019-05-10T02:32:57.285Z,0.00
2019-05-10T02:33:57.273Z,0.00
2019-05-10T02:34:57.251Z,0.00
2019-05-10T02:35:57.222Z,0.00
2019-05-10T02:36:57.205Z,0.00
2019-05-10T02:37:57.181Z,0.00
2019-05-10T02:38:57.161Z,0.00
2019-05-10T02:39:57.138Z,0.00
2019-05-10T02:40:57.122Z,0.00
2019-05-10T02:41:57.099Z,0.00
2019-05-10T02:42:57.077Z,0.00
2019-05-10T02:43:57.077Z,0.00
2019-05-10T02:44:57.036Z,0.00
2019-05-10T02:45:57.016Z,0.00
2019-05-10T02:46:56.994Z,0.00
2019-05-10T02:47:56.974Z,0.00
2019-05-10T02:48:56.952Z,0.00
2019-05-10T02:49:59.210Z,0.00
2019-05-10T02:50:56.913Z,0.00
2019-05-10T02:51:56.892Z,0.00
2019-05-10T02:52:56.871Z,0.00
2019-05-10T02:53:56.855Z,0.00
2019-05-10T02:54:56.843Z,0.00
2019-05-10T02:55:56.807Z,0.00
2019-05-10T02:56:56.787Z,0.00
2019-05-10T02:57:56.766Z,0.00
2019-05-10T02:58:56.750Z,0.00
2019-05-10T02:59:56.726Z,0.00
2019-05-10T03:00:56.702Z,0.00
2019-05-10T03:01:56.690Z,0.00
2019-05-10T03:02:56.814Z,0.00
2019-05-10T03:03:56.654Z,0.00
2019-05-10T03:04:56.755Z,0.00
2019-05-10T03:05:56.700Z,0.00
2019-05-10T03:06:56.576Z,0.00
2019-05-10T03:07:56.562Z,0.00
2019-05-10T03:08:56.536Z,0.00
2019-05-10T03:09:56.516Z,0.00
2019-05-10T03:10:56.494Z,0.00
2019-05-10T03:11:56.475Z,0.00
2019-05-10T03:12:56.461Z,0.00
2019-05-10T03:13:56.431Z,0.00
2019-05-10T03:14:56.425Z,0.00
2019-05-10T03:15:56.392Z,0.00
2019-05-10T03:16:56.368Z,0.00
2019-05-10T03:17:56.346Z,0.00
2019-05-10T03:18:56.328Z,0.00
2019-05-10T03:19:56.330Z,0.00
2019-05-10T03:20:56.285Z,0.00
2019-05-10T03:21:56.263Z,0.00
2019-05-10T03:22:56.244Z,0.00
2019-05-10T03:23:56.250Z,0.00
2019-05-10T03:24:56.202Z,0.00
2019-05-10T03:25:56.194Z,0.00
2019-05-10T03:26:56.165Z,0.00
2019-05-10T03:27:56.149Z,0.00
2019-05-10T03:28:56.116Z,0.00
2019-05-10T03:29:56.107Z,0.00
2019-05-10T03:30:56.076Z,0.00
2019-05-10T03:31:56.056Z,0.00
2019-05-10T03:32:56.035Z,0.00
2019-05-10T03:33:57.729Z,0.00
2019-05-10T03:34:55.992Z,0.00
2019-05-10T03:35:56.001Z,0.00
2019-05-10T03:36:55.949Z,0.00
2019-05-10T03:37:55.929Z,0.00
2019-05-10T03:38:55.915Z,0.00
2019-05-10T03:39:55.895Z,0.00
2019-05-10T03:40:55.865Z,0.00
2019-05-10T03:41:55.844Z,0.00
2019-05-10T03:42:55.822Z,0.00
2019-05-10T03:43:55.808Z,0.00
2019-05-10T03:44:55.793Z,0.00
2019-05-10T03:45:55.764Z,0.00
2019-05-10T03:46:55.738Z,0.00
2019-05-10T03:47:55.718Z,0.00
2019-05-10T03:48:55.696Z,0.00
2019-05-10T03:49:55.673Z,0.00
2019-05-10T03:50:55.657Z,0.00
2019-05-10T03:51:55.632Z,0.00
2019-05-10T03:52:55.622Z,0.00
2019-05-10T03:53:55.591Z,0.00
2019-05-10T03:54:55.695Z,0.00
2019-05-10T03:55:55.554Z,0.00
2019-05-10T03:57:12.338Z,0.00
2019-05-10T03:57:55.580Z,0.00
2019-05-10T03:58:55.486Z,0.00
2019-05-10T03:59:55.467Z,5.63
2019-05-10T04:00:55.446Z,5.63
2019-05-10T04:01:55.421Z,5.63
2019-05-10T04:02:55.402Z,5.63
2019-05-10T04:03:55.380Z,5.63
2019-05-10T04:04:55.366Z,5.63
2019-05-10T04:05:55.341Z,5.63
2019-05-10T04:06:55.317Z,5.63
2019-05-10T04:07:55.309Z,5.63
2019-05-10T04:08:55.277Z,5.63
2019-05-10T04:09:55.260Z,5.63
2019-05-10T04:10:55.236Z,5.63
2019-05-10T04:11:55.296Z,5.63
2019-05-10T04:12:55.191Z,5.63
2019-05-10T04:13:55.175Z,5.63
2019-05-10T04:14:55.149Z,5.63
2019-05-10T04:15:55.128Z,5.63
2019-05-10T04:16:55.110Z,5.63
2019-05-10T04:17:55.085Z,5.63
2019-05-10T04:18:55.063Z,5.63
2019-05-10T04:19:55.055Z,5.63
2019-05-10T04:20:55.020Z,5.63
2019-05-10T04:21:55.003Z,5.63
2019-05-10T04:22:54.979Z,5.63
2019-05-10T04:23:54.959Z,5.63
2019-05-10T04:24:54.938Z,5.63
2019-05-10T04:25:54.917Z,11.25
2019-05-10T04:26:54.900Z,5.63
2019-05-10T04:27:54.874Z,5.63
2019-05-10T04:28:54.869Z,5.63
2019-05-10T04:29:54.839Z,5.63
2019-05-10T04:30:54.812Z,5.63
2019-05-10T04:31:54.790Z,5.63
2019-05-10T04:32:54.774Z,5.63
2019-05-10T04:33:54.748Z,11.25
2019-05-10T04:34:54.825Z,11.25
2019-05-10T04:35:54.714Z,11.25
2019-05-10T04:36:54.683Z,11.25
2019-05-10T04:37:54.676Z,11.25
2019-05-10T04:38:54.652Z,5.63
2019-05-10T04:39:54.634Z,11.25
2019-05-10T04:40:54.600Z,11.25
2019-05-10T04:41:54.579Z,11.25
2019-05-10T04:42:54.557Z,11.25
2019-05-10T04:43:54.538Z,16.88
2019-05-10T04:44:54.516Z,22.50
2019-05-10T04:45:54.494Z,28.13
2019-05-10T04:46:54.475Z,28.13
2019-05-10T04:47:54.452Z,28.13
2019-05-10T04:48:54.433Z,33.75
2019-05-10T04:49:54.412Z,45.00
2019-05-10T04:50:54.407Z,45.00
2019-05-10T04:51:54.376Z,39.38
2019-05-10T04:52:54.346Z,39.38
2019-05-10T04:53:54.327Z,33.75
2019-05-10T04:54:54.305Z,33.75
2019-05-10T04:55:54.284Z,33.75
2019-05-10T04:56:54.272Z,22.50
2019-05-10T04:57:54.243Z,16.88
2019-05-10T04:58:54.230Z,16.88
2019-05-10T04:59:54.201Z,11.25
2019-05-10T05:00:54.182Z,11.25
2019-05-10T05:01:54.162Z,16.88
2019-05-10T05:02:54.139Z,11.25
2019-05-10T05:03:54.118Z,11.25
2019-05-10T05:04:54.096Z,11.25
2019-05-10T05:05:54.074Z,11.25
2019-05-10T05:06:54.054Z,5.63
2019-05-10T05:07:54.031Z,5.63
2019-05-10T05:08:54.226Z,11.25
2019-05-10T05:09:53.998Z,11.25
2019-05-10T05:10:53.979Z,11.25
2019-05-10T05:11:53.950Z,16.88
2019-05-10T05:12:53.970Z,22.50
2019-05-10T05:13:53.906Z,28.13
2019-05-10T05:14:53.887Z,39.38
2019-05-10T05:15:53.874Z,50.63
2019-05-10T05:16:53.848Z,67.50
2019-05-10T05:17:53.830Z,61.88
2019-05-10T05:18:53.810Z,56.25
2019-05-10T05:19:53.781Z,50.63
2019-05-10T05:20:53.766Z,56.25
2019-05-10T05:21:53.740Z,78.75
2019-05-10T05:22:53.718Z,73.13
2019-05-10T05:23:53.697Z,78.75
2019-05-10T05:24:55.178Z,73.13
2019-05-10T05:25:53.656Z,67.50
2019-05-10T05:26:53.644Z,67.50
2019-05-10T05:28:06.759Z,56.25
2019-05-10T05:28:53.592Z,61.88
2019-05-10T05:29:53.580Z,45.00
2019-05-10T05:30:53.556Z,39.38
2019-05-10T05:32:00.180Z,39.38
2019-05-10T05:32:56.753Z,39.38
2019-05-10T05:33:53.494Z,39.38
2019-05-10T05:34:53.467Z,33.75
2019-05-10T05:35:53.446Z,50.63
2019-05-10T05:36:53.425Z,45.00
2019-05-10T05:37:53.411Z,61.88
2019-05-10T05:38:53.383Z,39.38
2019-05-10T05:39:53.370Z,28.13
2019-05-10T05:40:53.340Z,33.75
2019-05-10T05:41:56.698Z,28.13
2019-05-10T05:42:53.298Z,33.75
2019-05-10T05:43:53.279Z,39.38
2019-05-10T05:44:53.308Z,39.38
2019-05-10T05:45:53.236Z,39.38
2019-05-10T05:46:53.218Z,33.75
2019-05-10T05:47:53.194Z,39.38
2019-05-10T05:48:53.172Z,50.63
2019-05-10T05:49:53.153Z,56.25
2019-05-10T05:50:53.140Z,50.63
2019-05-10T05:51:53.121Z,78.75
2019-05-10T05:52:53.106Z,90.00
2019-05-10T05:53:53.102Z,90.00
2019-05-10T05:54:57.625Z,73.13
2019-05-10T05:55:53.027Z,73.13
2019-05-10T05:56:53.322Z,84.38
2019-05-10T05:57:52.985Z,84.38
2019-05-10T05:58:52.964Z,95.63
2019-05-10T05:59:57.463Z,101.25
2019-05-10T06:00:52.943Z,101.25
2019-05-10T06:01:52.903Z,112.50
2019-05-10T06:02:52.883Z,118.13
2019-05-10T06:03:52.862Z,129.38
2019-05-10T06:04:52.840Z,135.00
2019-05-10T06:05:52.818Z,140.63
2019-05-10T06:06:53.834Z,151.88
2019-05-10T06:07:52.984Z,174.38
2019-05-10T06:08:54.613Z,191.25
2019-05-10T06:09:52.735Z,202.50
2019-05-10T06:10:57.593Z,208.13
2019-05-10T06:11:52.696Z,196.88
2019-05-10T06:12:53.022Z,202.50
2019-05-10T06:13:52.651Z,208.13
2019-05-10T06:14:52.638Z,202.50
2019-05-10T06:15:52.614Z,185.63
2019-05-10T06:16:53.116Z,157.50
2019-05-10T06:17:57.069Z,174.38
2019-05-10T06:18:52.558Z,174.38
2019-05-10T06:19:52.530Z,163.13
2019-05-10T06:20:52.507Z,202.50
2019-05-10T06:21:58.007Z,208.13
2019-05-10T06:23:06.048Z,196.88
2019-05-10T06:23:52.448Z,208.13
2019-05-10T06:24:53.899Z,151.88
2019-05-10T06:25:52.408Z,174.38
2019-05-10T06:26:52.389Z,180.00
2019-05-10T06:27:52.373Z,168.75
2019-05-10T06:28:59.539Z,157.50
2019-05-10T06:29:52.333Z,151.88
2019-05-10T06:30:52.305Z,140.63
2019-05-10T06:31:52.293Z,135.00
2019-05-10T06:32:53.224Z,123.75
2019-05-10T06:33:52.243Z,123.75
2019-05-10T06:34:52.222Z,112.50
2019-05-10T06:35:52.202Z,101.25
2019-05-10T06:36:52.180Z,95.63
2019-05-10T06:37:52.161Z,95.63
2019-05-10T06:38:52.141Z,101.25
2019-05-10T06:39:52.123Z,101.25
2019-05-10T06:40:52.104Z,106.88
2019-05-10T06:41:55.945Z,112.50
2019-05-10T06:42:52.060Z,106.88
2019-05-10T06:43:53.332Z,112.50
2019-05-10T06:44:52.018Z,123.75
2019-05-10T06:45:53.817Z,118.13
2019-05-10T06:46:51.986Z,140.63
2019-05-10T06:47:53.488Z,135.00
2019-05-10T06:48:51.939Z,140.63
2019-05-10T06:49:52.398Z,123.75
2019-05-10T06:50:51.899Z,135.00
2019-05-10T06:51:51.884Z,140.63
2019-05-10T06:52:52.335Z,146.25
2019-05-10T06:53:53.759Z,230.63
2019-05-10T06:54:51.821Z,292.50
2019-05-10T06:55:51.817Z,343.13
2019-05-10T06:56:51.782Z,348.75
2019-05-10T06:57:59.321Z,253.13
2019-05-10T06:58:51.736Z,382.50
2019-05-10T06:59:56.483Z,421.88
2019-05-10T07:00:51.703Z,343.13
2019-05-10T07:01:52.288Z,298.13
2019-05-10T07:02:51.658Z,298.13
2019-05-10T07:03:51.673Z,320.63
2019-05-10T07:04:51.616Z,506.25
2019-05-10T07:05:51.597Z,568.13
2019-05-10T07:06:51.580Z,1535.63
2019-05-10T07:07:51.556Z,697.50
2019-05-10T07:08:57.648Z,646.88
2019-05-10T07:10:15.726Z,1912.50
2019-05-10T07:10:51.507Z,1749.38
2019-05-10T07:11:51.490Z,759.38
2019-05-10T07:12:57.285Z,742.50
2019-05-10T07:13:53.107Z,905.63
2019-05-10T07:14:51.422Z,680.63
2019-05-10T07:15:51.405Z,641.25
2019-05-10T07:16:51.385Z,528.75
2019-05-10T07:17:51.942Z,483.75
2019-05-10T07:18:54.728Z,376.88
2019-05-10T07:19:54.868Z,264.38
2019-05-10T07:20:53.934Z,360.00
2019-05-10T07:21:51.378Z,348.75
2019-05-10T07:22:51.281Z,388.13
2019-05-10T07:23:51.262Z,371.25
2019-05-10T07:24:51.248Z,292.50
2019-05-10T07:25:51.228Z,320.63
2019-05-10T07:26:51.205Z,348.75
2019-05-10T07:27:51.186Z,495.00
2019-05-10T07:28:51.876Z,534.38
2019-05-10T07:29:51.170Z,596.25
2019-05-10T07:30:51.134Z,669.38
2019-05-10T07:31:51.131Z,798.75
2019-05-10T07:32:54.622Z,821.25
2019-05-10T07:33:51.096Z,798.75
2019-05-10T07:34:58.822Z,725.63
2019-05-10T07:35:51.042Z,691.88
2019-05-10T07:36:51.029Z,759.38
2019-05-10T07:37:51.747Z,810.00
2019-05-10T07:38:50.991Z,849.38
2019-05-10T07:39:50.990Z,877.50
2019-05-10T07:40:50.962Z,838.13
2019-05-10T07:41:50.939Z,860.63
2019-05-10T07:42:50.924Z,855.00
2019-05-10T07:43:50.927Z,826.88
2019-05-10T07:44:50.919Z,781.88
2019-05-10T07:45:50.883Z,720.00
2019-05-10T07:46:54.351Z,680.63
2019-05-10T07:47:50.834Z,680.63
2019-05-10T07:48:53.794Z,635.63
2019-05-10T07:49:50.802Z,540.00
2019-05-10T07:50:52.009Z,472.50
2019-05-10T07:51:50.767Z,433.13
2019-05-10T07:52:50.759Z,438.75
2019-05-10T07:53:50.735Z,455.63
2019-05-10T07:54:50.725Z,444.38
2019-05-10T07:55:50.709Z,461.25
2019-05-10T07:56:50.692Z,483.75
2019-05-10T07:57:50.668Z,506.25
2019-05-10T07:58:50.651Z,556.88
2019-05-10T07:59:51.400Z,669.38
2019-05-10T08:00:50.624Z,720.00
2019-05-10T08:01:50.602Z,646.88
2019-05-10T08:02:57.765Z,607.50
2019-05-10T08:03:52.459Z,624.38
2019-05-10T08:04:53.425Z,607.50
2019-05-10T08:05:55.149Z,489.38
2019-05-10T08:06:52.055Z,472.50
2019-05-10T08:07:50.504Z,466.88
2019-05-10T08:08:55.309Z,405.00
2019-05-10T08:09:50.462Z,388.13
2019-05-10T08:10:50.446Z,331.88
2019-05-10T08:11:54.222Z,258.75
2019-05-10T08:12:50.421Z,258.75
2019-05-10T08:13:50.406Z,275.63
2019-05-10T08:14:53.533Z,241.88
2019-05-10T08:15:50.372Z,196.88
2019-05-10T08:16:58.616Z,185.63
2019-05-10T08:17:50.984Z,174.38
2019-05-10T08:18:50.314Z,151.88
2019-05-10T08:19:50.298Z,123.75
2019-05-10T08:20:55.129Z,112.50
2019-05-10T08:21:55.298Z,118.13
2019-05-10T08:22:52.403Z,118.13
2019-05-10T08:23:52.168Z,123.75
2019-05-10T08:24:52.741Z,106.88
2019-05-10T08:25:50.183Z,112.50
2019-05-10T08:26:55.566Z,101.25
2019-05-10T08:27:54.988Z,129.38
2019-05-10T08:28:52.359Z,123.75
2019-05-10T08:29:52.950Z,123.75
2019-05-10T08:30:53.688Z,123.75
2019-05-10T08:31:53.686Z,123.75
2019-05-10T08:32:52.439Z,135.00
2019-05-10T08:33:56.336Z,123.75
2019-05-10T08:34:53.105Z,118.13
2019-05-10T08:35:52.464Z,129.38
2019-05-10T08:36:51.969Z,151.88
2019-05-10T08:37:49.969Z,168.75
2019-05-10T08:39:03.119Z,191.25
2019-05-10T08:39:55.610Z,208.13
2019-05-10T08:40:52.069Z,225.00
2019-05-10T08:42:01.331Z,236.25
2019-05-10T08:43:01.472Z,253.13
2019-05-10T08:43:52.404Z,264.38
2019-05-10T08:44:54.175Z,281.25
2019-05-10T08:45:52.339Z,281.25
2019-05-10T08:46:49.806Z,264.38
2019-05-10T08:47:52.653Z,264.38
2019-05-10T08:48:53.104Z,270.00
2019-05-10T08:50:06.491Z,275.63
2019-05-10T08:50:56.906Z,292.50
2019-05-10T08:51:52.073Z,315.00
2019-05-10T08:52:49.688Z,331.88
2019-05-10T08:53:55.875Z,348.75
2019-05-10T08:54:49.654Z,371.25
2019-05-10T08:55:52.289Z,388.13
2019-05-10T08:56:53.067Z,416.25
2019-05-10T08:57:49.589Z,438.75
2019-05-10T08:58:49.573Z,444.38
2019-05-10T08:59:54.168Z,461.25
2019-05-10T09:00:54.655Z,506.25
2019-05-10T09:01:50.803Z,568.13
2019-05-10T09:02:51.438Z,579.38
2019-05-10T09:03:55.619Z,618.75
2019-05-10T09:04:50.411Z,624.38
2019-05-10T09:05:49.453Z,551.25
2019-05-10T09:06:55.347Z,455.63
2019-05-10T09:07:51.909Z,360.00
2019-05-10T09:08:52.991Z,320.63
2019-05-10T09:09:50.112Z,354.38
2019-05-10T09:10:49.349Z,427.50
2019-05-10T09:11:49.335Z,472.50
2019-05-10T09:12:53.745Z,472.50
2019-05-10T09:13:49.296Z,478.13
2019-05-10T09:14:57.498Z,461.25
2019-05-10T09:15:54.355Z,399.38
2019-05-10T09:16:59.700Z,421.88
2019-05-10T09:17:49.223Z,444.38
2019-05-10T09:18:51.152Z,556.88
2019-05-10T09:19:49.197Z,601.88
2019-05-10T09:20:51.469Z,495.00
2019-05-10T09:21:51.946Z,635.63
2019-05-10T09:22:49.153Z,714.38
2019-05-10T09:23:53.024Z,624.38
2019-05-10T09:24:50.001Z,590.63
2019-05-10T09:25:49.086Z,556.88
2019-05-10T09:26:52.789Z,540.00
2019-05-10T09:27:49.044Z,506.25
2019-05-10T09:28:53.461Z,568.13
2019-05-10T09:29:49.008Z,618.75
2019-05-10T09:30:59.396Z,630.00
2019-05-10T09:31:51.198Z,641.25
2019-05-10T09:32:48.952Z,663.75
2019-05-10T09:33:51.211Z,697.50
2019-05-10T09:34:48.919Z,731.25
2019-05-10T09:35:52.376Z,776.25
2019-05-10T09:36:48.886Z,838.13
2019-05-10T09:37:53.921Z,905.63
2019-05-10T09:38:48.848Z,883.13
2019-05-10T09:39:55.405Z,849.38
2019-05-10T09:40:52.935Z,849.38
2019-05-10T09:41:48.796Z,832.50
2019-05-10T09:42:48.826Z,804.38
2019-05-10T09:43:50.617Z,793.13
2019-05-10T09:44:48.744Z,759.38
2019-05-10T09:45:48.732Z,675.00
2019-05-10T09:46:48.710Z,601.88
2019-05-10T09:47:48.701Z,585.00
2019-05-10T09:48:54.484Z,613.13
2019-05-10T09:49:56.421Z,618.75
2019-05-10T09:50:48.647Z,613.13
2019-05-10T09:51:48.624Z,585.00
2019-05-10T09:52:48.615Z,573.75
2019-05-10T09:53:48.753Z,607.50
2019-05-10T09:54:49.545Z,652.50
2019-05-10T09:55:55.316Z,691.88
2019-05-10T09:56:51.977Z,697.50
2019-05-10T09:57:48.533Z,703.13
2019-05-10T09:58:48.662Z,720.00
2019-05-10T09:59:48.489Z,703.13
2019-05-10T10:00:48.688Z,663.75
2019-05-10T10:01:48.552Z,601.88
2019-05-10T10:02:56.092Z,551.25
2019-05-10T10:03:48.430Z,540.00
2019-05-10T10:04:48.406Z,551.25
2019-05-10T10:05:48.510Z,562.50
2019-05-10T10:06:52.702Z,556.88
2019-05-10T10:07:48.355Z,500.63
2019-05-10T10:08:51.918Z,450.00
2019-05-10T10:09:48.343Z,427.50
2019-05-10T10:10:48.306Z,450.00
2019-05-10T10:11:58.088Z,455.63
2019-05-10T10:12:48.275Z,450.00
2019-05-10T10:13:58.581Z,416.25
2019-05-10T10:14:48.237Z,337.50
2019-05-10T10:15:52.130Z,331.88
2019-05-10T10:16:57.898Z,354.38
2019-05-10T10:17:48.195Z,354.38
2019-05-10T10:18:48.181Z,354.38
2019-05-10T10:19:48.234Z,354.38
2019-05-10T10:20:48.268Z,410.63
2019-05-10T10:21:48.119Z,455.63
2019-05-10T10:22:52.603Z,416.25
2019-05-10T10:23:48.091Z,388.13
2019-05-10T10:24:49.219Z,365.63
2019-05-10T10:25:48.503Z,388.13
2019-05-10T10:26:48.292Z,433.13
2019-05-10T10:27:48.185Z,461.25
2019-05-10T10:28:49.760Z,450.00
2019-05-10T10:29:47.994Z,444.38
2019-05-10T10:30:50.330Z,405.00
2019-05-10T10:31:55.277Z,365.63
2019-05-10T10:32:47.929Z,337.50
2019-05-10T10:33:56.927Z,337.50
2019-05-10T10:34:52.513Z,354.38
2019-05-10T10:35:48.251Z,354.38
2019-05-10T10:36:47.859Z,365.63
2019-05-10T10:37:47.854Z,348.75
2019-05-10T10:38:49.646Z,326.25
2019-05-10T10:39:47.848Z,326.25
2019-05-10T10:40:47.793Z,331.88
2019-05-10T10:41:49.173Z,343.13
2019-05-10T10:42:47.766Z,365.63
2019-05-10T10:43:48.577Z,382.50
2019-05-10T10:44:48.374Z,427.50
2019-05-10T10:45:47.705Z,506.25
2019-05-10T10:46:48.121Z,618.75
2019-05-10T10:47:47.670Z,731.25
2019-05-10T10:48:49.284Z,641.25
2019-05-10T10:49:47.640Z,590.63
2019-05-10T10:50:53.860Z,551.25
2019-05-10T10:51:47.602Z,528.75
2019-05-10T10:52:47.589Z,500.63
2019-05-10T10:53:47.565Z,517.50
2019-05-10T10:54:48.045Z,601.88
2019-05-10T10:55:54.170Z,742.50
2019-05-10T10:56:48.266Z,826.88
2019-05-10T10:57:48.152Z,759.38
2019-05-10T10:58:49.911Z,781.88
2019-05-10T10:59:47.596Z,725.63
2019-05-10T11:00:48.132Z,630.00
2019-05-10T11:01:56.637Z,528.75
2019-05-10T11:02:51.914Z,478.13
2019-05-10T11:03:49.058Z,450.00
2019-05-10T11:04:48.986Z,388.13
2019-05-10T11:05:47.362Z,326.25
2019-05-10T11:06:47.345Z,275.63
2019-05-10T11:07:47.993Z,270.00
2019-05-10T11:08:47.315Z,281.25
2019-05-10T11:09:47.292Z,264.38
2019-05-10T11:10:47.276Z,208.13
2019-05-10T11:11:47.276Z,157.50
2019-05-10T11:12:47.249Z,163.13
2019-05-10T11:13:57.948Z,196.88
2019-05-10T11:14:47.391Z,241.88
2019-05-10T11:15:47.199Z,343.13
2019-05-10T11:16:52.824Z,450.00
2019-05-10T11:17:47.167Z,483.75
2019-05-10T11:18:47.141Z,472.50
2019-05-10T11:19:47.122Z,461.25
2019-05-10T11:20:49.367Z,646.88
2019-05-10T11:21:47.091Z,973.13
2019-05-10T11:22:49.752Z,956.25
2019-05-10T11:23:47.064Z,933.75
2019-05-10T11:24:51.762Z,1023.75
2019-05-10T11:25:54.346Z,956.25
2019-05-10T11:26:47.004Z,956.25
2019-05-10T11:27:47.571Z,961.88
2019-05-10T11:28:46.972Z,933.75
2019-05-10T11:29:46.965Z,787.50
2019-05-10T11:30:46.942Z,720.00
2019-05-10T11:31:53.516Z,613.13
2019-05-10T11:32:46.905Z,511.88
2019-05-10T11:33:52.274Z,427.50
2019-05-10T11:34:46.872Z,315.00
2019-05-10T11:35:46.856Z,241.88
2019-05-10T11:36:48.288Z,208.13
2019-05-10T11:37:46.827Z,180.00
2019-05-10T11:38:51.967Z,151.88
2019-05-10T11:39:47.173Z,135.00
2019-05-10T11:40:46.774Z,129.38
2019-05-10T11:41:53.044Z,163.13
2019-05-10T11:42:47.570Z,230.63
2019-05-10T11:43:46.723Z,320.63
2019-05-10T11:44:50.092Z,360.00
2019-05-10T11:45:46.700Z,461.25
2019-05-10T11:46:46.681Z,613.13
2019-05-10T11:47:47.992Z,736.88
2019-05-10T11:48:46.656Z,669.38
2019-05-10T11:49:46.630Z,613.13
2019-05-10T11:50:46.604Z,579.38
2019-05-10T11:51:47.957Z,562.50
2019-05-10T11:52:46.569Z,641.25
2019-05-10T11:53:48.962Z,781.88
2019-05-10T11:54:46.544Z,888.75
2019-05-10T11:55:46.528Z,1012.50
2019-05-10T11:56:46.510Z,945.00
2019-05-10T11:58:00.818Z,883.13
2019-05-10T11:58:53.098Z,900.00
2019-05-10T11:59:46.460Z,866.25
2019-05-10T12:00:46.436Z,832.50
2019-05-10T12:01:57.263Z,742.50
2019-05-10T12:03:46.394Z,680.63
2019-05-10T12:04:46.409Z,714.38
2019-05-10T12:05:56.482Z,663.75
2019-05-10T12:06:50.026Z,607.50
2019-05-10T12:07:46.327Z,635.63
2019-05-10T12:08:46.303Z,630.00
2019-05-10T12:09:53.329Z,641.25
2019-05-10T12:10:52.643Z,652.50
2019-05-10T12:11:51.859Z,658.13
2019-05-10T12:13:01.672Z,708.75
2019-05-10T12:13:46.221Z,793.13
2019-05-10T12:14:46.669Z,849.38
2019-05-10T12:15:46.203Z,883.13
2019-05-10T12:16:46.273Z,849.38
2019-05-10T12:17:47.642Z,849.38
2019-05-10T12:19:01.222Z,843.75
2019-05-10T12:19:50.575Z,866.25
2019-05-10T12:20:55.652Z,888.75
2019-05-10T12:21:46.089Z,877.50
2019-05-10T12:23:51.033Z,765.00
2019-05-10T12:26:05.558Z,821.25
2019-05-10T12:26:13.562Z,781.88
2019-05-10T12:26:19.490Z,669.38
2019-05-10T12:26:36.094Z,776.25
2019-05-10T12:27:22.594Z,748.13
2019-05-10T12:27:49.173Z,725.63
2019-05-10T12:28:45.989Z,725.63
2019-05-10T12:29:46.579Z,703.13
2019-05-10T12:30:45.961Z,680.63
2019-05-10T12:31:47.402Z,641.25
2019-05-10T12:32:55.665Z,601.88
2019-05-10T12:33:45.912Z,511.88
2019-05-10T12:34:50.507Z,450.00
2019-05-10T12:35:47.304Z,405.00
2019-05-10T12:36:45.857Z,382.50
2019-05-10T12:37:53.026Z,399.38
2019-05-10T12:38:45.826Z,416.25
2019-05-10T12:39:45.809Z,405.00
2019-05-10T12:40:46.039Z,388.13
2019-05-10T12:41:49.657Z,365.63
2019-05-10T12:42:47.107Z,337.50
2019-05-10T12:43:48.362Z,303.75
2019-05-10T12:44:47.999Z,264.38
2019-05-10T12:45:45.727Z,270.00
2019-05-10T12:46:45.699Z,298.13
2019-05-10T12:47:45.683Z,298.13